createdAt,value
2024-04-18T00:00:33.423Z,78.37
2024-04-18T00:03:00.032Z,77.71
2024-04-18T00:05:26.556Z,79.05
2024-04-18T00:07:53.017Z,78.91
2024-04-18T00:10:19.507Z,78.45
2024-04-18T00:12:46.040Z,79.33
2024-04-18T00:15:12.567Z,78.21
2024-04-18T00:17:39.086Z,78.23
2024-04-18T00:20:06.203Z,78.30
2024-04-18T00:22:32.691Z,78.68
2024-04-18T00:24:59.217Z,78.79
2024-04-18T00:27:25.822Z,79.28
2024-04-18T00:29:52.300Z,78.72
2024-04-18T00:32:18.901Z,78.60
2024-04-18T00:34:45.432Z,78.63
2024-04-18T00:37:11.896Z,78.11
2024-04-18T00:39:38.443Z,78.26
2024-04-18T00:42:05.027Z,78.38
2024-04-18T00:44:32.091Z,78.22
2024-04-18T00:46:58.611Z,78.32
2024-04-18T00:49:26.725Z,78.86
2024-04-18T00:51:55.265Z,78.57
2024-04-18T00:54:22.516Z,78.54
2024-04-18T00:56:49.088Z,78.62
2024-04-18T00:59:16.608Z,78.87
2024-04-18T01:01:46.610Z,78.78
2024-04-18T01:04:13.255Z,79.04
2024-04-18T01:06:39.915Z,78.74
2024-04-18T01:09:06.419Z,78.84
2024-04-18T01:11:33.500Z,79.40
2024-04-18T01:14:10.420Z,79.07
2024-04-18T01:16:36.852Z,79.04
2024-04-18T01:19:05.300Z,79.15
2024-04-18T01:21:32.003Z,78.88
2024-04-18T01:23:58.459Z,79.07
2024-04-18T01:26:24.960Z,78.90
2024-04-18T01:28:51.435Z,78.96
2024-04-18T01:31:17.899Z,79.04
2024-04-18T01:33:44.455Z,78.89
2024-04-18T01:36:11.076Z,78.95
2024-04-18T01:38:37.512Z,79.05
2024-04-18T01:41:04.050Z,78.86
2024-04-18T01:43:30.886Z,78.65
2024-04-18T01:45:57.320Z,78.60
2024-04-18T01:48:23.899Z,79.08
2024-04-18T01:50:50.369Z,78.67
2024-04-18T01:53:17.011Z,78.71
2024-04-18T01:55:44.379Z,78.40
2024-04-18T01:58:10.912Z,78.71
2024-04-18T02:00:43.913Z,78.96
2024-04-18T02:03:10.543Z,78.47
2024-04-18T02:05:37.152Z,78.85
2024-04-18T02:08:04.000Z,78.92
2024-04-18T02:10:30.440Z,78.42
2024-04-18T02:12:56.922Z,78.79
2024-04-18T02:15:26.850Z,78.70
2024-04-18T02:17:54.001Z,78.97
2024-04-18T02:20:21.212Z,79.22
2024-04-18T02:22:47.919Z,80.55
2024-04-18T02:25:14.566Z,79.84
2024-04-18T02:27:43.400Z,79.99
2024-04-18T02:30:11.835Z,79.97
2024-04-18T02:32:39.084Z,79.99
2024-04-18T02:35:06.040Z,80.12
2024-04-18T02:37:32.701Z,80.13
2024-04-18T02:39:59.180Z,80.38
2024-04-18T02:42:26.377Z,80.27
2024-04-18T02:44:53.406Z,80.75
2024-04-18T02:47:19.942Z,80.46
2024-04-18T02:49:46.472Z,80.98
2024-04-18T02:52:12.949Z,80.67
2024-04-18T02:54:39.539Z,80.97
2024-04-18T02:57:06.038Z,81.12
2024-04-18T02:59:32.589Z,81.21
2024-04-18T03:01:59.088Z,81.06
2024-04-18T03:04:25.659Z,81.02
2024-04-18T03:06:52.213Z,80.83
2024-04-18T03:09:18.698Z,80.74
2024-04-18T03:11:48.503Z,80.60
2024-04-18T03:14:15.096Z,80.39
2024-04-18T03:16:41.531Z,80.71
2024-04-18T03:19:14.002Z,80.23
2024-04-18T03:21:40.540Z,80.22
2024-04-18T03:24:20.142Z,80.03
2024-04-18T03:26:47.455Z,79.88
2024-04-18T03:29:14.195Z,80.21
2024-04-18T03:31:46.415Z,79.94
2024-04-18T03:34:12.940Z,80.17
2024-04-18T03:36:42.565Z,80.70
2024-04-18T03:39:09.631Z,80.49
2024-04-18T03:41:37.825Z,80.96
2024-04-18T03:44:06.443Z,81.90
2024-04-18T03:46:32.859Z,81.66
2024-04-18T03:48:59.424Z,81.87
2024-04-18T03:51:25.942Z,81.56
2024-04-18T03:53:52.471Z,81.65
2024-04-18T03:56:19.019Z,82.91
2024-04-18T03:58:45.419Z,82.40
2024-04-18T04:01:12.024Z,82.05
2024-04-18T04:03:38.708Z,83.12
2024-04-18T04:06:05.603Z,81.88
2024-04-18T04:08:32.071Z,81.95
2024-04-18T04:10:58.606Z,82.98
2024-04-18T04:13:25.080Z,82.53
2024-04-18T04:15:51.900Z,83.25
2024-04-18T04:18:18.850Z,83.38
2024-04-18T04:20:45.646Z,83.70
2024-04-18T04:23:12.116Z,83.46
2024-04-18T04:25:38.648Z,84.29
2024-04-18T04:28:05.141Z,83.09
2024-04-18T04:30:31.616Z,83.62
2024-04-18T04:32:58.097Z,83.51
2024-04-18T04:35:24.613Z,83.46
2024-04-18T04:37:51.039Z,83.65
2024-04-18T04:40:17.556Z,84.04
2024-04-18T04:42:44.212Z,83.48
2024-04-18T04:45:10.791Z,84.59
2024-04-18T04:47:37.316Z,84.56
2024-04-18T04:50:04.981Z,85.07
2024-04-18T04:52:31.477Z,85.94
2024-04-18T04:54:57.938Z,85.07
2024-04-18T04:57:24.469Z,84.91
2024-04-18T04:59:50.986Z,84.39
2024-04-18T05:02:17.586Z,83.58
2024-04-18T05:04:44.101Z,83.72
2024-04-18T05:07:10.601Z,83.63
2024-04-18T05:09:37.134Z,84.28
2024-04-18T05:12:04.058Z,84.82
2024-04-18T05:14:30.511Z,84.55
2024-04-18T05:16:57.026Z,84.13
2024-04-18T05:19:23.576Z,84.65
2024-04-18T05:21:51.191Z,84.68
2024-04-18T05:24:17.821Z,84.65
2024-04-18T05:26:44.360Z,84.88
2024-04-18T05:29:10.770Z,85.79
2024-04-18T05:31:39.891Z,84.95
2024-04-18T05:34:08.179Z,85.17
2024-04-18T05:36:34.853Z,85.20
2024-04-18T05:39:01.429Z,85.68
2024-04-18T05:41:27.839Z,85.79
2024-04-18T05:43:54.330Z,85.33
2024-04-18T05:46:20.799Z,85.61
2024-04-18T05:48:47.367Z,85.17
2024-04-18T05:51:13.998Z,84.63
2024-04-18T05:53:41.310Z,84.60
2024-04-18T05:56:07.993Z,84.39
2024-04-18T05:58:34.438Z,84.16
2024-04-18T06:01:01.000Z,84.30
2024-04-18T06:03:27.543Z,84.06
2024-04-18T06:05:54.152Z,83.54
2024-04-18T06:08:20.614Z,83.52
2024-04-18T06:10:47.297Z,83.20
2024-04-18T06:13:13.771Z,82.66
2024-04-18T06:15:43.549Z,81.75
2024-04-18T06:18:10.386Z,82.48
2024-04-18T06:20:42.548Z,82.58
2024-04-18T06:23:09.807Z,82.58
2024-04-18T06:25:36.960Z,83.39
2024-04-18T06:28:07.587Z,82.39
2024-04-18T06:30:34.251Z,81.82
2024-04-18T06:33:01.042Z,81.55
2024-04-18T06:35:27.599Z,81.83
2024-04-18T06:37:54.070Z,82.23
2024-04-18T06:40:20.528Z,81.97
2024-04-18T06:42:47.052Z,81.62
2024-04-18T06:45:13.612Z,81.00
2024-04-18T06:47:40.223Z,79.84
2024-04-18T06:50:06.842Z,79.61
2024-04-18T06:52:33.801Z,79.09
2024-04-18T06:55:00.409Z,78.47
2024-04-18T06:57:26.964Z,79.14
2024-04-18T06:59:53.411Z,78.58
2024-04-18T07:02:19.936Z,77.66
2024-04-18T07:04:46.942Z,76.12
2024-04-18T07:07:14.818Z,76.25
2024-04-18T07:09:41.225Z,75.69
2024-04-18T07:12:08.906Z,75.88
2024-04-18T07:14:35.361Z,75.96
2024-04-18T07:17:04.891Z,76.14
2024-04-18T07:19:31.538Z,75.57
2024-04-18T07:21:58.013Z,74.46
2024-04-18T07:24:24.526Z,74.24
2024-04-18T07:26:53.297Z,74.57
2024-04-18T07:29:21.215Z,74.22
2024-04-18T07:31:47.735Z,73.21
2024-04-18T07:34:15.165Z,73.25
2024-04-18T07:36:41.792Z,72.40
2024-04-18T07:39:08.284Z,71.30
2024-04-18T07:41:34.748Z,72.67
2024-04-18T07:44:01.171Z,71.98
2024-04-18T07:46:27.618Z,71.59
2024-04-18T07:48:54.091Z,72.28
2024-04-18T07:51:20.574Z,71.45
2024-04-18T07:53:47.048Z,71.29
2024-04-18T07:56:13.722Z,71.38
2024-04-18T07:58:40.855Z,71.42
2024-04-18T08:01:09.033Z,70.94
2024-04-18T08:03:39.126Z,70.83
2024-04-18T08:06:09.732Z,70.00
2024-04-18T08:08:40.868Z,69.96
2024-04-18T08:11:27.294Z,70.93
2024-04-18T08:13:58.465Z,69.22
2024-04-18T08:16:27.692Z,69.66
2024-04-18T08:18:54.214Z,70.13
2024-04-18T08:21:20.650Z,71.52
2024-04-18T08:23:47.113Z,71.42
2024-04-18T08:26:13.558Z,69.69
2024-04-18T08:28:40.123Z,68.84
2024-04-18T08:31:06.586Z,68.49
2024-04-18T08:33:33.072Z,68.61
2024-04-18T08:35:59.586Z,69.07
2024-04-18T08:38:26.075Z,67.74
2024-04-18T08:40:53.096Z,67.70
2024-04-18T08:43:20.078Z,67.04
2024-04-18T08:45:47.351Z,66.80
2024-04-18T08:48:14.689Z,66.19
2024-04-18T08:50:46.379Z,65.86
2024-04-18T08:53:13.017Z,65.29
2024-04-18T08:55:46.747Z,64.42
2024-04-18T08:58:13.762Z,64.87
2024-04-18T09:00:45.426Z,63.10
2024-04-18T09:03:12.111Z,62.21
2024-04-18T09:05:39.636Z,63.30
2024-04-18T09:08:06.524Z,62.72
2024-04-18T09:10:33.685Z,61.62
2024-04-18T09:13:03.977Z,62.34
2024-04-18T09:15:33.372Z,63.32
2024-04-18T09:18:04.983Z,61.13
2024-04-18T09:20:33.256Z,60.17
2024-04-18T09:22:59.736Z,60.70
2024-04-18T09:25:26.439Z,61.62
2024-04-18T09:27:53.157Z,60.08
2024-04-18T09:30:19.676Z,61.18
2024-04-18T09:32:48.453Z,59.29
2024-04-18T09:35:17.869Z,58.35
2024-04-18T09:37:50.034Z,59.50
2024-04-18T09:40:26.582Z,58.25
2024-04-18T09:43:22.351Z,56.95
2024-04-18T09:45:53.485Z,55.64
2024-04-18T09:48:21.551Z,57.30
2024-04-18T09:50:49.530Z,60.00
2024-04-18T09:53:16.136Z,66.38
2024-04-18T09:55:43.037Z,68.83
2024-04-18T09:58:10.818Z,69.38
2024-04-18T10:00:38.057Z,70.88
2024-04-18T10:03:05.566Z,70.20
2024-04-18T10:05:32.112Z,69.53
2024-04-18T10:08:00.896Z,69.35
2024-04-18T10:10:29.267Z,66.36
2024-04-18T10:12:55.904Z,65.56
2024-04-18T10:15:22.493Z,66.41
2024-04-18T10:17:49.055Z,65.61
2024-04-18T10:20:15.834Z,65.76
2024-04-18T10:22:47.393Z,65.72
2024-04-18T10:25:20.069Z,64.81
2024-04-18T10:27:46.630Z,64.59
2024-04-18T10:30:16.448Z,65.31
2024-04-18T10:32:45.602Z,62.79
2024-04-18T10:35:12.265Z,61.46
2024-04-18T10:37:48.786Z,59.34
2024-04-18T10:40:16.283Z,58.37
2024-04-18T10:42:42.672Z,59.12
2024-04-18T10:45:09.438Z,59.82
2024-04-18T10:47:36.683Z,60.66
2024-04-18T10:50:03.271Z,62.15
2024-04-18T10:52:29.803Z,63.86
2024-04-18T10:54:56.271Z,65.45
2024-04-18T10:57:22.840Z,66.13
2024-04-18T10:59:49.446Z,65.89
2024-04-18T11:02:15.979Z,65.50
2024-04-18T11:04:42.592Z,66.22
2024-04-18T11:07:09.075Z,65.25
2024-04-18T11:09:35.564Z,65.36
2024-04-18T11:12:03.026Z,62.90
2024-04-18T11:14:29.643Z,61.45
2024-04-18T11:16:57.458Z,57.48
2024-04-18T11:19:24.201Z,58.32
2024-04-18T11:21:51.188Z,57.77
2024-04-18T11:24:18.411Z,55.86
2024-04-18T11:26:45.084Z,55.62
2024-04-18T11:29:11.590Z,55.16
2024-04-18T11:31:38.071Z,55.20
2024-04-18T11:34:04.678Z,55.32
2024-04-18T11:36:31.171Z,54.46
2024-04-18T11:39:03.975Z,54.04
2024-04-18T11:41:31.074Z,51.88
2024-04-18T11:43:57.713Z,52.03
2024-04-18T11:46:24.179Z,53.43
2024-04-18T11:48:50.795Z,52.17
2024-04-18T11:51:17.278Z,49.76
2024-04-18T11:53:43.779Z,50.52
2024-04-18T11:56:10.270Z,51.25
2024-04-18T11:58:36.720Z,50.02
2024-04-18T12:01:03.361Z,48.61
2024-04-18T12:03:29.981Z,45.74
2024-04-18T12:05:56.893Z,44.55
2024-04-18T12:08:24.309Z,44.42
2024-04-18T12:10:50.743Z,48.82
2024-04-18T12:13:20.213Z,52.98
2024-04-18T12:15:46.768Z,54.10
2024-04-18T12:18:13.288Z,55.65
2024-04-18T12:20:39.766Z,55.50
2024-04-18T12:23:06.226Z,56.04
2024-04-18T12:25:32.720Z,56.57
2024-04-18T12:27:59.132Z,57.72
2024-04-18T12:30:28.154Z,56.89
2024-04-18T12:32:56.033Z,54.95
2024-04-18T12:35:22.710Z,53.52
2024-04-18T12:37:49.172Z,52.12
2024-04-18T12:40:15.626Z,52.85
2024-04-18T12:42:42.287Z,52.05
2024-04-18T12:45:08.863Z,51.16
2024-04-18T12:47:35.563Z,49.66
2024-04-18T12:50:02.323Z,49.97
2024-04-18T12:52:28.858Z,49.21
2024-04-18T12:54:55.334Z,49.81
2024-04-18T12:57:21.861Z,51.17
2024-04-18T12:59:48.333Z,51.05
2024-04-18T13:02:14.851Z,52.11
2024-04-18T13:04:41.348Z,51.55
2024-04-18T13:07:07.848Z,49.77
2024-04-18T13:09:34.662Z,49.46
2024-04-18T13:12:02.382Z,48.44
2024-04-18T13:14:28.857Z,47.84
2024-04-18T13:16:55.419Z,47.56
2024-04-18T13:19:23.240Z,46.96
2024-04-18T13:21:49.661Z,46.51
2024-04-18T13:24:16.148Z,46.59
2024-04-18T13:26:42.668Z,46.91
2024-04-18T13:29:09.144Z,46.54
2024-04-18T13:31:35.632Z,45.93
2024-04-18T13:34:02.180Z,45.32
2024-04-18T13:36:28.773Z,45.27
2024-04-18T13:38:55.309Z,46.19
2024-04-18T13:41:21.899Z,46.30
2024-04-18T13:43:48.382Z,46.00
2024-04-18T13:46:14.849Z,45.54
2024-04-18T13:48:41.381Z,46.11
2024-04-18T13:51:07.902Z,44.50
2024-04-18T13:53:34.654Z,44.00
2024-04-18T13:56:01.114Z,45.85
2024-04-18T13:58:27.614Z,41.86
2024-04-18T14:00:54.095Z,42.51
2024-04-18T14:03:20.743Z,42.91
2024-04-18T14:05:47.435Z,43.96
2024-04-18T14:08:14.047Z,44.44
2024-04-18T14:10:40.611Z,44.84
2024-04-18T14:13:07.144Z,44.54
2024-04-18T14:15:33.664Z,43.60
2024-04-18T14:18:00.196Z,42.42
2024-04-18T14:20:26.702Z,43.16
2024-04-18T14:22:53.165Z,43.34
2024-04-18T14:25:19.700Z,43.76
2024-04-18T14:27:46.256Z,44.56
2024-04-18T14:30:12.797Z,46.34
2024-04-18T14:32:39.344Z,46.41
2024-04-18T14:35:06.415Z,46.54
2024-04-18T14:37:33.076Z,45.21
2024-04-18T14:39:59.541Z,48.01
2024-04-18T14:42:26.102Z,47.94
2024-04-18T14:44:52.631Z,49.80
2024-04-18T14:47:19.856Z,55.34
2024-04-18T14:49:46.285Z,57.27
2024-04-18T14:52:12.802Z,56.98
2024-04-18T14:54:39.304Z,59.37
2024-04-18T14:57:05.830Z,60.04
2024-04-18T14:59:32.328Z,60.25
2024-04-18T15:01:58.791Z,62.11
2024-04-18T15:04:26.671Z,63.13
2024-04-18T15:06:54.745Z,63.16
2024-04-18T15:09:21.177Z,63.80
2024-04-18T15:11:47.714Z,61.51
2024-04-18T15:14:14.133Z,60.93
2024-04-18T15:16:40.616Z,59.98
2024-04-18T15:19:07.143Z,59.21
2024-04-18T15:21:33.798Z,59.69
2024-04-18T15:24:00.289Z,59.69
2024-04-18T15:26:26.731Z,59.77
2024-04-18T15:28:53.211Z,58.29
2024-04-18T15:31:19.670Z,58.27
2024-04-18T15:33:46.179Z,57.47
2024-04-18T15:36:12.729Z,57.73
2024-04-18T15:38:39.282Z,58.03
2024-04-18T15:41:05.763Z,57.54
2024-04-18T15:43:32.186Z,56.60
2024-04-18T15:46:02.490Z,56.23
2024-04-18T15:48:29.039Z,55.46
2024-04-18T15:50:58.949Z,53.65
2024-04-18T15:53:25.498Z,52.97
2024-04-18T15:55:51.981Z,53.59
2024-04-18T15:58:21.683Z,53.90
2024-04-18T16:00:49.449Z,54.29
2024-04-18T16:03:16.045Z,54.39
2024-04-18T16:05:43.307Z,52.42
2024-04-18T16:08:11.450Z,53.63
2024-04-18T16:10:38.132Z,53.40
2024-04-18T16:13:04.697Z,53.40
2024-04-18T16:15:31.170Z,53.89
2024-04-18T16:17:58.589Z,54.88
2024-04-18T16:20:25.196Z,54.87
2024-04-18T16:22:51.671Z,54.77
2024-04-18T16:25:18.105Z,54.88
2024-04-18T16:27:44.669Z,55.50
2024-04-18T16:30:11.491Z,55.05
2024-04-18T16:32:38.103Z,55.00
2024-04-18T16:35:04.821Z,54.34
2024-04-18T16:37:31.409Z,53.55
2024-04-18T16:39:57.863Z,52.88
2024-04-18T16:42:24.431Z,52.13
2024-04-18T16:44:50.998Z,50.87
2024-04-18T16:47:17.476Z,50.02
2024-04-18T16:49:43.963Z,49.73
2024-04-18T16:52:11.300Z,49.09
2024-04-18T16:54:37.904Z,49.46
2024-04-18T16:57:04.615Z,49.03
2024-04-18T16:59:31.131Z,47.59
2024-04-18T17:01:57.631Z,47.99
2024-04-18T17:04:24.229Z,47.66
2024-04-18T17:06:50.808Z,47.05
2024-04-18T17:09:17.435Z,47.72
2024-04-18T17:11:44.326Z,47.38
2024-04-18T17:14:10.804Z,49.77
2024-04-18T17:16:37.236Z,49.74
2024-04-18T17:19:03.778Z,49.54
2024-04-18T17:21:30.417Z,50.19
2024-04-18T17:23:56.958Z,49.41
2024-04-18T17:26:25.805Z,49.68
2024-04-18T17:28:54.465Z,50.45
2024-04-18T17:31:20.932Z,50.95
2024-04-18T17:33:47.428Z,51.33
2024-04-18T17:36:13.957Z,52.60
2024-04-18T17:38:42.505Z,53.43
2024-04-18T17:41:09.238Z,53.87
2024-04-18T17:43:35.791Z,55.38
2024-04-18T17:46:02.235Z,55.85
2024-04-18T17:48:28.819Z,57.20
2024-04-18T17:50:55.431Z,57.83
2024-04-18T17:53:21.936Z,59.18
2024-04-18T17:55:49.457Z,60.17
2024-04-18T17:58:17.081Z,61.49
2024-04-18T18:00:43.588Z,62.13
2024-04-18T18:03:10.171Z,62.20
2024-04-18T18:05:36.782Z,63.14
2024-04-18T18:08:03.396Z,63.45
2024-04-18T18:10:29.828Z,63.14
2024-04-18T18:12:56.413Z,63.79
2024-04-18T18:15:23.004Z,66.23
2024-04-18T18:17:49.663Z,64.28
2024-04-18T18:20:16.304Z,63.73
2024-04-18T18:22:42.792Z,64.96
2024-04-18T18:25:09.262Z,64.97
2024-04-18T18:27:35.867Z,65.42
2024-04-18T18:30:02.396Z,66.45
2024-04-18T18:32:28.869Z,66.99
2024-04-18T18:34:55.420Z,68.33
2024-04-18T18:37:21.921Z,68.47
2024-04-18T18:39:48.438Z,69.27
2024-04-18T18:42:14.963Z,70.84
2024-04-18T18:44:41.484Z,70.02
2024-04-18T18:47:08.034Z,69.29
2024-04-18T18:49:34.544Z,69.01
2024-04-18T18:52:01.047Z,70.74
2024-04-18T18:54:27.727Z,70.73
2024-04-18T18:56:54.206Z,73.07
2024-04-18T18:59:20.660Z,70.21
2024-04-18T19:01:47.185Z,69.92
2024-04-18T19:04:15.036Z,70.02
2024-04-18T19:06:41.837Z,70.57
2024-04-18T19:09:08.371Z,70.47
2024-04-18T19:11:34.916Z,69.89
2024-04-18T19:14:02.076Z,71.42
2024-04-18T19:16:28.563Z,70.54
2024-04-18T19:18:55.091Z,70.88
2024-04-18T19:21:21.656Z,70.89
2024-04-18T19:23:48.119Z,71.11
2024-04-18T19:26:14.643Z,70.91
2024-04-18T19:28:42.091Z,71.64
2024-04-18T19:31:09.894Z,72.28
2024-04-18T19:33:37.033Z,72.77
2024-04-18T19:36:03.832Z,73.39
2024-04-18T19:38:30.289Z,73.31
2024-04-18T19:41:03.687Z,73.80
2024-04-18T19:43:30.166Z,74.09
2024-04-18T19:46:00.366Z,74.83
2024-04-18T19:48:28.390Z,74.14
2024-04-18T19:50:55.428Z,74.75
2024-04-18T19:53:23.006Z,74.26
2024-04-18T19:55:50.017Z,74.89
2024-04-18T19:58:19.635Z,73.79
2024-04-18T20:00:46.370Z,73.71
2024-04-18T20:03:13.245Z,73.65
2024-04-18T20:05:40.569Z,73.55
2024-04-18T20:08:07.840Z,74.30
2024-04-18T20:10:35.072Z,74.12
2024-04-18T20:13:01.873Z,73.85
2024-04-18T20:17:55.373Z,73.44
2024-04-18T20:20:21.992Z,72.99
2024-04-18T20:22:48.455Z,72.92
2024-04-18T20:25:14.978Z,73.09
2024-04-18T20:27:41.619Z,73.61
2024-04-18T20:30:09.077Z,73.72
2024-04-18T20:32:35.701Z,73.79
2024-04-18T20:35:02.360Z,73.58
2024-04-18T20:37:28.825Z,73.90
2024-04-18T20:39:58.631Z,73.79
2024-04-18T20:42:26.147Z,73.62
2024-04-18T20:44:52.603Z,74.22
2024-04-18T20:47:19.139Z,74.21
2024-04-18T20:49:45.634Z,75.41
2024-04-18T20:52:12.148Z,74.29
2024-04-18T20:54:38.898Z,74.00
2024-04-18T20:57:05.750Z,73.80
2024-04-18T20:59:32.345Z,73.88
2024-04-18T21:01:58.973Z,74.17
2024-04-18T21:04:25.695Z,75.56
2024-04-18T21:06:52.416Z,74.28
2024-04-18T21:09:19.170Z,74.50
2024-04-18T21:11:45.854Z,74.65
2024-04-18T21:14:12.468Z,74.33
2024-04-18T21:16:39.116Z,74.44
2024-04-18T21:19:06.259Z,75.46
2024-04-18T21:21:33.004Z,74.78
2024-04-18T21:23:59.626Z,74.97
2024-04-18T21:26:26.223Z,75.17
2024-04-18T21:28:52.812Z,75.75
2024-04-18T21:31:19.508Z,75.19
2024-04-18T21:33:46.278Z,76.48
2024-04-18T21:36:13.066Z,75.53
2024-04-18T21:38:50.806Z,74.74
2024-04-18T21:41:25.457Z,74.69
2024-04-18T21:43:55.927Z,74.44
2024-04-18T21:46:22.713Z,74.36
2024-04-18T21:48:49.835Z,74.55
2024-04-18T21:51:16.707Z,73.93
2024-04-18T21:53:43.345Z,73.87
2024-04-18T21:56:10.783Z,74.06
2024-04-18T21:58:37.562Z,74.53
2024-04-18T22:01:04.701Z,74.30
2024-04-18T22:03:31.727Z,74.15
2024-04-18T22:05:58.420Z,74.40
2024-04-18T22:08:25.076Z,74.47
2024-04-18T22:10:51.856Z,73.71
2024-04-18T22:13:18.612Z,73.96
2024-04-18T22:15:45.345Z,73.66
2024-04-18T22:18:12.227Z,73.77
2024-04-18T22:20:39.077Z,73.73
2024-04-18T22:23:05.667Z,73.46
2024-04-18T22:25:32.302Z,73.73
2024-04-18T22:27:59.076Z,73.67
2024-04-18T22:30:25.713Z,73.79
2024-04-18T22:32:52.430Z,74.00
2024-04-18T22:35:19.213Z,74.25
2024-04-18T22:37:45.898Z,73.85
2024-04-18T22:40:12.627Z,74.33
2024-04-18T22:42:39.259Z,74.11
2024-04-18T22:45:06.185Z,74.51
2024-04-18T22:47:32.935Z,74.08
2024-04-18T22:49:59.592Z,73.89
2024-04-18T22:52:26.181Z,74.15
2024-04-18T22:54:52.853Z,74.46
2024-04-18T22:57:19.534Z,75.60
2024-04-18T22:59:46.205Z,74.76
2024-04-18T23:02:13.812Z,74.71
2024-04-18T23:04:40.459Z,74.67
2024-04-18T23:07:08.957Z,74.05
2024-04-18T23:09:35.844Z,74.35
2024-04-18T23:12:02.999Z,74.02
2024-04-18T23:14:29.779Z,73.93
2024-04-18T23:16:56.414Z,74.25
2024-04-18T23:19:23.058Z,75.39
2024-04-18T23:21:49.793Z,74.78
2024-04-18T23:24:16.414Z,74.74
2024-04-18T23:26:43.041Z,74.58
2024-04-18T23:29:09.787Z,74.42
2024-04-18T23:31:36.418Z,74.28
2024-04-18T23:34:03.077Z,75.37
2024-04-18T23:36:29.751Z,74.75
2024-04-18T23:38:56.427Z,75.00
2024-04-18T23:41:23.115Z,75.09
2024-04-18T23:43:49.752Z,75.14
2024-04-18T23:46:16.433Z,75.65
2024-04-18T23:48:43.305Z,75.92
2024-04-18T23:51:10.123Z,75.31
2024-04-18T23:53:36.782Z,75.68
2024-04-18T23:56:03.550Z,75.73
2024-04-18T23:58:30.971Z,75.64
